Time;durP1;ratioP1;P1;durP2;ratioP2;P2;SDS_P1;SDS_P2;PMS_P1;PMS_P2;Temp;Humidity;BMP_temperature;BMP_pressure;BME280_temperature;BME280_humidity;BME280_pressure;Samples;Min_cycle;Max_cycle;Signal;HPM_P1;HPM_P2
2022/10/07 00:01:33;;;;;;;2.25;0.63;;;20.20;64.60;;;;;;4993337;28;20125;-62
2022/10/07 00:03:59;;;;;;;2.20;0.73;;;20.20;64.60;;;;;;4992841;28;20486;-62
2022/10/07 00:06:25;;;;;;;1.55;0.43;;;20.20;64.60;;;;;;4991749;28;20537;-62
2022/10/07 00:08:52;;;;;;;3.63;0.60;;;20.20;64.60;;;;;;4993082;28;20475;-62
2022/10/07 00:11:25;;;;;;;1.65;0.55;;;20.20;64.60;;;;;;4992491;28;20517;-62
2022/10/07 00:13:52;;;;;;;3.08;0.70;;;20.20;64.60;;;;;;4992609;28;20130;-62
2022/10/07 00:16:19;;;;;;;1.60;0.40;;;20.20;64.80;;;;;;4992674;28;20073;-62
2022/10/07 00:18:45;;;;;;;4.03;0.73;;;20.20;64.60;;;;;;4992924;28;20042;-62
2022/10/07 00:21:13;;;;;;;3.95;0.60;;;20.10;64.50;;;;;;4991840;28;20398;-62
2022/10/07 00:23:41;;;;;;;3.10;0.70;;;20.20;64.60;;;;;;4993220;28;20089;-62
2022/10/07 00:26:07;;;;;;;3.53;0.60;;;20.20;64.60;;;;;;4992670;28;20418;-62
2022/10/07 00:28:33;;;;;;;3.20;0.73;;;20.10;64.50;;;;;;4992419;28;20042;-62
2022/10/07 00:31:23;;;;;;;1.63;0.57;;;20.10;64.50;;;;;;4992915;28;20101;-62
2022/10/07 00:33:48;;;;;;;2.60;0.65;;;20.10;65.10;;;;;;4984408;28;20425;-62
2022/10/07 00:36:16;;;;;;;2.58;0.60;;;20.10;64.50;;;;;;4992723;28;20050;-62
2022/10/07 00:38:42;;;;;;;3.38;0.60;;;20.10;64.50;;;;;;4993081;28;20049;-62
2022/10/07 00:41:08;;;;;;;2.45;0.70;;;20.10;64.50;;;;;;4992038;28;20042;-62
2022/10/07 00:43:33;;;;;;;2.20;0.60;;;20.10;64.50;;;;;;4992760;28;20092;-62
2022/10/07 00:46:06;;;;;;;1.95;0.47;;;20.10;64.50;;;;;;4996801;28;20447;-62
2022/10/07 00:48:32;;;;;;;1.92;0.60;;;20.10;65.10;;;;;;4978521;28;20089;-62
2022/10/07 00:50:58;;;;;;;2.30;0.70;;;20.10;64.40;;;;;;4979181;28;20070;-62
2022/10/07 00:53:24;;;;;;;2.17;0.60;;;20.10;64.50;;;;;;4978919;28;20043;-62
2022/10/07 00:55:50;;;;;;;3.60;0.70;;;20.10;64.50;;;;;;4962016;28;20081;-62
2022/10/07 00:58:18;;;;;;;2.13;0.70;;;20.10;64.50;;;;;;4978764;28;20066;-62
2022/10/07 01:00:43;;;;;;;1.73;0.50;;;20.10;64.50;;;;;;4979406;28;20058;-62
2022/10/07 01:03:09;;;;;;;2.92;0.63;;;20.10;64.50;;;;;;4995546;28;20046;-62
2022/10/07 01:05:34;;;;;;;1.65;0.65;;;20.00;64.40;;;;;;4996205;28;20057;-62
2022/10/07 01:08:00;;;;;;;2.38;0.68;;;20.10;64.50;;;;;;4996246;28;20085;-62
2022/10/07 01:10:30;;;;;;;2.17;0.70;;;20.10;64.50;;;;;;4995003;28;20046;-62
2022/10/07 01:13:07;;;;;;;2.35;0.77;;;20.00;64.40;;;;;;4979420;28;20050;-62
2022/10/07 01:15:37;;;;;;;1.52;0.60;;;20.00;64.40;;;;;;4979160;28;20050;-62
2022/10/07 01:18:14;;;;;;;2.55;0.50;;;20.00;65.00;;;;;;4978169;28;20065;-62
2022/10/07 01:21:03;;;;;;;2.30;0.60;;;20.00;64.40;;;;;;4996128;28;20048;-62
2022/10/07 01:23:40;;;;;;;3.20;0.70;;;20.00;64.40;;;;;;4980299;28;20791;-62
2022/10/07 01:26:38;;;;;;;3.50;0.88;;;20.00;64.40;;;;;;4978549;28;20101;-62
2022/10/07 01:29:13;;;;;;;4.57;0.70;;;20.00;64.30;;;;;;4995995;28;20046;-62
2022/10/07 01:31:44;;;;;;;3.33;0.70;;;20.00;64.40;;;;;;4979343;28;20121;-62
2022/10/07 01:34:09;;;;;;;2.85;0.77;;;20.00;64.40;;;;;;4978440;28;20050;-62
2022/10/07 01:36:35;;;;;;;1.80;0.52;;;20.00;64.40;;;;;;4978656;28;20044;-62
2022/10/07 01:39:05;;;;;;;3.13;0.70;;;20.00;65.00;;;;;;4977630;28;20441;-62
2022/10/07 01:41:30;;;;;;;2.72;0.90;;;20.00;64.30;;;;;;4978599;28;20050;-62
2022/10/07 01:43:56;;;;;;;2.75;0.70;;;20.00;64.30;;;;;;4977636;28;20042;-62
2022/10/07 01:46:23;;;;;;;1.05;0.50;;;20.00;64.30;;;;;;4995404;28;20137;-61
2022/10/07 01:48:50;;;;;;;2.58;0.70;;;20.00;64.30;;;;;;4995363;28;20062;-62
2022/10/07 01:51:16;;;;;;;3.15;0.98;;;19.90;64.30;;;;;;4977267;28;20046;-62
2022/10/07 01:54:01;;;;;;;1.85;0.50;;;19.90;64.30;;;;;;4995264;28;20064;-62
2022/10/07 01:56:41;;;;;;;1.45;0.60;;;19.90;64.20;;;;;;4994006;28;20050;-62
2022/10/07 01:59:22;;;;;;;1.80;0.70;;;19.90;64.20;;;;;;4994533;28;20125;-62
2022/10/07 02:01:50;;;;;;;1.63;0.50;;;19.90;64.20;;;;;;4962175;28;20116;-62
2022/10/07 02:04:18;;;;;;;;;;;19.90;64.30;;;;;;4994560;28;20126;-62
2022/10/07 02:06:55;;;;;;;3.38;0.63;;;19.90;64.20;;;;;;4994143;28;19926;-62
2022/10/07 02:09:34;;;;;;;2.63;0.60;;;19.90;64.30;;;;;;4978260;28;20046;-62
2022/10/07 02:12:12;;;;;;;1.65;0.60;;;19.90;64.20;;;;;;4977000;28;20046;-62
2022/10/07 02:14:47;;;;;;;2.60;0.60;;;19.90;64.20;;;;;;4978731;28;20046;-62
2022/10/07 02:17:16;;;;;;;1.63;0.65;;;19.90;64.30;;;;;;4978027;28;20046;-62
2022/10/07 02:19:45;;;;;;;2.75;0.90;;;19.90;64.30;;;;;;4977366;28;20065;-62
2022/10/07 02:22:10;;;;;;;1.75;0.50;;;19.90;64.20;;;;;;4977293;28;20050;-62
2022/10/07 02:24:36;;;;;;;2.17;0.55;;;19.90;64.20;;;;;;4977746;28;20050;-61
2022/10/07 02:27:07;;;;;;;2.33;0.70;;;19.80;64.20;;;;;;4976549;28;20565;-62
2022/10/07 02:29:33;;;;;;;2.05;0.75;;;19.80;64.20;;;;;;4977956;28;20069;-62
2022/10/07 02:31:59;;;;;;;1.95;1.05;;;19.90;64.20;;;;;;4977484;28;20114;-62
2022/10/07 02:34:24;;;;;;;3.28;0.57;;;19.80;64.20;;;;;;4976397;28;20133;-62
2022/10/07 02:36:54;;;;;;;2.65;0.70;;;19.80;64.20;;;;;;4977300;28;20050;-62
2022/10/07 02:39:20;;;;;;;2.38;0.70;;;19.80;64.20;;;;;;4977812;28;20089;-62
2022/10/07 02:42:02;;;;;;;1.17;0.50;;;19.80;64.10;;;;;;4993737;28;20058;-62
2022/10/07 02:44:34;;;;;;;2.25;0.63;;;19.80;64.10;;;;;;4976819;28;20038;-62
2022/10/07 02:47:13;;;;;;;1.90;0.60;;;19.80;64.10;;;;;;4994151;28;20398;-62
2022/10/07 02:49:39;;;;;;;2.78;0.65;;;19.80;64.20;;;;;;4978034;28;20054;-62
2022/10/07 02:52:12;;;;;;;2.28;0.60;;;19.80;64.20;;;;;;4976704;28;20498;-62
2022/10/07 02:54:42;;;;;;;2.17;0.60;;;19.80;64.10;;;;;;4976079;28;20038;-62
2022/10/07 02:57:08;;;;;;;2.40;0.70;;;19.80;64.10;;;;;;4976623;28;20046;-62
2022/10/07 02:59:33;;;;;;;2.67;0.60;;;19.80;64.10;;;;;;4977092;28;20446;-62
2022/10/07 03:02:00;;;;;;;2.25;0.70;;;19.80;64.10;;;;;;4976186;28;20042;-62
2022/10/07 03:04:25;;;;;;;1.52;0.50;;;19.80;64.20;;;;;;4976891;28;20486;-62
2022/10/07 03:06:51;;;;;;;1.88;0.90;;;19.80;64.10;;;;;;4993728;28;20066;-62
2022/10/07 03:09:17;;;;;;;2.28;0.70;;;19.80;64.10;;;;;;4975828;28;20096;-62
2022/10/07 03:11:42;;;;;;;1.88;0.65;;;19.80;64.10;;;;;;4993814;28;20046;-62
2022/10/07 03:14:09;;;;;;;1.50;0.70;;;19.80;64.10;;;;;;4993839;28;20093;-62
2022/10/07 03:16:34;;;;;;;1.73;0.52;;;19.80;64.00;;;;;;4993217;28;20050;-62
2022/10/07 03:19:00;;;;;;;2.40;0.80;;;19.80;64.10;;;;;;4993606;28;20050;-62
2022/10/07 03:21:25;;;;;;;2.38;0.65;;;19.80;64.00;;;;;;4993562;28;20474;-62
2022/10/07 03:23:51;;;;;;;3.70;0.80;;;19.80;64.00;;;;;;4992994;28;20135;-62
2022/10/07 03:26:18;;;;;;;2.22;0.68;;;19.80;64.10;;;;;;4993489;28;20050;-62
2022/10/07 03:28:44;;;;;;;2.80;0.55;;;19.80;64.00;;;;;;4993756;28;20046;-62
2022/10/07 03:31:10;;;;;;;2.50;0.80;;;19.80;64.00;;;;;;4992853;28;20038;-62
2022/10/07 03:33:36;;;;;;;1.27;0.50;;;19.80;64.10;;;;;;4993791;28;20053;-62
2022/10/07 03:36:02;;;;;;;3.00;0.80;;;19.80;64.10;;;;;;4993818;28;20050;-62
2022/10/07 03:38:28;;;;;;;1.95;0.50;;;19.80;64.00;;;;;;4992461;28;20391;-62
2022/10/07 03:40:54;;;;;;;2.03;0.57;;;19.80;64.00;;;;;;4993271;28;20061;-62
2022/10/07 03:43:19;;;;;;;2.28;0.63;;;19.80;64.10;;;;;;4993401;28;20039;-62
2022/10/07 03:45:48;;;;;;;3.65;0.70;;;19.90;64.10;;;;;;4992775;28;20056;-62
2022/10/07 03:48:14;;;;;;;2.03;0.50;;;19.80;64.00;;;;;;4993027;28;20089;-61
2022/10/07 03:50:40;;;;;;;2.88;0.52;;;19.90;64.10;;;;;;4975393;28;20077;-61
2022/10/07 03:53:06;;;;;;;2.50;0.60;;;19.90;64.10;;;;;;4993330;28;20065;-61
2022/10/07 03:55:32;;;;;;;2.65;0.60;;;19.90;64.10;;;;;;4993021;28;20081;-61
2022/10/07 03:57:57;;;;;;;2.42;0.73;;;19.90;64.10;;;;;;4992530;28;20054;-61
2022/10/07 04:00:24;;;;;;;2.72;0.50;;;19.90;64.00;;;;;;4992989;28;20048;-61
2022/10/07 04:02:50;;;;;;;2.72;0.70;;;19.90;64.10;;;;;;4993248;28;20042;-61
2022/10/07 04:05:16;;;;;;;2.13;0.60;;;19.90;64.00;;;;;;4991861;28;20053;-62
2022/10/07 04:07:45;;;;;;;2.42;0.70;;;19.90;64.00;;;;;;4992582;28;20073;-62
2022/10/07 04:10:12;;;;;;;2.25;0.55;;;20.00;64.10;;;;;;4993023;28;20042;-61
2022/10/07 04:12:38;;;;;;;1.65;0.50;;;19.90;64.10;;;;;;4992430;28;20042;-62
2022/10/07 04:15:04;;;;;;;2.80;0.63;;;20.00;64.10;;;;;;4993150;28;20092;-61
2022/10/07 04:17:30;;;;;;;2.03;0.70;;;19.90;64.00;;;;;;4975511;28;20371;-62
2022/10/07 04:19:56;;;;;;;3.97;1.02;;;20.00;64.10;;;;;;4994541;28;20043;-61
2022/10/07 04:22:22;;;;;;;1.85;0.70;;;20.00;64.10;;;;;;4996920;28;20041;-61
2022/10/07 04:25:32;;;;;;;3.35;1.10;;;20.00;64.10;;;;;;4997301;28;20057;-62
2022/10/07 04:27:34;;;;;;;2.15;0.68;;;20.00;64.00;;;;;;4995899;28;20043;-61
2022/10/07 04:29:59;;;;;;;2.65;0.60;;;20.00;64.00;;;;;;4979640;28;20390;-61
2022/10/07 04:32:25;;;;;;;2.80;0.70;;;20.00;64.00;;;;;;4996513;28;20108;-61
2022/10/07 04:34:51;;;;;;;3.20;0.70;;;20.00;64.00;;;;;;4995824;28;20046;-61
2022/10/07 04:37:17;;;;;;;1.88;0.60;;;20.00;64.00;;;;;;4996825;28;20046;-62
2022/10/07 04:39:42;;;;;;;2.97;0.68;;;20.10;64.10;;;;;;4996328;28;20096;-62
2022/10/07 04:43:17;;;;;;;2.13;0.55;;;20.10;64.00;;;;;;4996476;28;20473;-61
2022/10/07 04:44:53;;;;;;;2.05;0.63;;;20.00;64.60;;;;;;4996596;28;20069;-62
2022/10/07 04:47:19;;;;;;;3.22;0.73;;;20.00;64.00;;;;;;4995638;28;20406;-61
2022/10/07 04:49:44;;;;;;;1.55;0.60;;;20.10;64.00;;;;;;4996625;28;20057;-62
2022/10/07 04:52:10;;;;;;;2.35;0.70;;;20.10;64.00;;;;;;4996347;28;20049;-62
2022/10/07 04:54:38;;;;;;;2.83;0.60;;;20.10;64.00;;;;;;4995747;28;20046;-62
2022/10/07 04:57:04;;;;;;;2.42;0.50;;;20.10;64.00;;;;;;4996602;28;20050;-62
2022/10/07 04:59:29;;;;;;;2.60;0.88;;;20.10;64.00;;;;;;4996397;28;20081;-62
2022/10/07 05:01:55;;;;;;;3.58;0.85;;;20.10;64.00;;;;;;4995394;28;20447;-62
2022/10/07 05:04:21;;;;;;;2.13;0.70;;;20.10;63.90;;;;;;4995960;28;20046;-61
2022/10/07 05:06:46;;;;;;;3.53;0.70;;;20.10;63.90;;;;;;4996605;28;20050;-62
2022/10/07 05:09:12;;;;;;;1.85;0.57;;;20.10;63.90;;;;;;4995356;28;20100;-62
2022/10/07 05:11:37;;;;;;;4.47;0.70;;;20.10;64.00;;;;;;4996503;28;20050;-62
2022/10/07 05:14:03;;;;;;;2.55;0.70;;;20.10;64.00;;;;;;4996166;28;20380;-62
2022/10/07 05:16:28;;;;;;;1.48;0.50;;;20.10;64.00;;;;;;4994987;28;20501;-62
2022/10/07 05:18:54;;;;;;;1.63;0.50;;;20.10;64.00;;;;;;4996081;28;20063;-62
2022/10/07 05:21:20;;;;;;;2.33;0.77;;;20.10;64.00;;;;;;4978525;28;20045;-62
2022/10/07 05:23:46;;;;;;;2.67;0.73;;;20.10;63.90;;;;;;4995552;28;20537;-62
2022/10/07 05:26:12;;;;;;;2.30;0.80;;;20.10;63.90;;;;;;4995806;28;20121;-62
2022/10/07 05:28:39;;;;;;;2.45;0.50;;;20.10;64.00;;;;;;4996211;28;20050;-62
2022/10/07 05:31:11;;;;;;;2.50;0.90;;;20.10;64.00;;;;;;4995181;28;20038;-62
2022/10/07 05:33:37;;;;;;;3.50;0.75;;;20.10;64.00;;;;;;4996013;28;20056;-62
2022/10/07 05:36:04;;;;;;;3.42;0.57;;;20.10;64.00;;;;;;4994901;28;20395;-62
2022/10/07 05:38:30;;;;;;;1.50;0.70;;;20.00;64.00;;;;;;4995983;28;20088;-62
2022/10/07 05:41:00;;;;;;;2.17;0.90;;;20.10;64.10;;;;;;4995880;28;20047;-62
2022/10/07 05:43:26;;;;;;;3.35;0.95;;;20.00;64.00;;;;;;4994907;28;20549;-62
2022/10/07 05:46:11;;;;;;;3.10;0.90;;;20.00;64.00;;;;;;4995646;28;20042;-62
2022/10/07 05:48:37;;;;;;;2.53;0.90;;;20.00;64.00;;;;;;4995467;28;20134;-62
2022/10/07 05:51:02;;;;;;;2.58;0.80;;;20.00;64.60;;;;;;4994599;28;20082;-62
2022/10/07 05:53:28;;;;;;;3.40;0.63;;;20.00;64.00;;;;;;4995462;28;20039;-61
2022/10/07 05:55:54;;;;;;;3.63;0.77;;;20.00;64.00;;;;;;4995559;28;20050;-64
2022/10/07 05:58:20;;;;;;;2.50;0.70;;;20.00;64.00;;;;;;4994198;28;20122;-62
2022/10/07 06:00:53;;;;;;;4.18;0.80;;;20.00;64.00;;;;;;4995441;28;20049;-61
2022/10/07 06:03:19;;;;;;;2.58;0.57;;;20.00;64.00;;;;;;4978021;28;20435;-61
2022/10/07 06:05:46;;;;;;;1.98;0.65;;;20.00;64.00;;;;;;4994395;28;20050;-62
2022/10/07 06:08:11;;;;;;;2.72;0.75;;;20.00;64.00;;;;;;4994794;28;20506;-62
2022/10/07 06:13:22;;;;;;;3.97;0.73;;;20.00;64.10;;;;;;4994509;28;20046;-61
2022/10/07 06:15:49;;;;;;;4.45;0.82;;;20.00;64.10;;;;;;4995256;28;20046;-62
2022/10/07 06:18:14;;;;;;;1.80;0.70;;;20.00;64.10;;;;;;4994125;28;20206;-62
2022/10/07 06:20:40;;;;;;;3.45;1.02;;;20.00;64.10;;;;;;4995062;28;20049;-62
2022/10/07 06:23:06;;;;;;;1.55;0.70;;;20.00;64.10;;;;;;4995011;28;20173;-62
2022/10/07 06:25:33;;;;;;;4.85;0.70;;;20.00;64.10;;;;;;4994208;28;20050;-62
2022/10/07 06:27:59;;;;;;;3.47;0.82;;;20.00;64.10;;;;;;4994991;28;20045;-62
2022/10/07 06:30:25;;;;;;;3.08;0.90;;;20.00;64.20;;;;;;4994554;28;20852;-62
2022/10/07 06:32:51;;;;;;;4.05;0.80;;;20.00;64.10;;;;;;4994369;28;20038;-62
2022/10/07 06:35:16;;;;;;;2.45;0.75;;;20.00;64.10;;;;;;4994281;28;20557;-62
2022/10/07 06:37:42;;;;;;;2.58;0.70;;;20.00;64.20;;;;;;4977002;28;20046;-62
2022/10/07 06:40:08;;;;;;;3.88;0.93;;;20.00;64.10;;;;;;4993457;28;20089;-62
2022/10/07 06:42:34;;;;;;;3.90;0.77;;;20.00;64.20;;;;;;4994115;28;20042;-62
2022/10/07 06:44:59;;;;;;;3.08;0.70;;;20.00;64.10;;;;;;4994683;28;20046;-62
2022/10/07 06:47:25;;;;;;;3.50;0.77;;;20.00;64.10;;;;;;4993336;28;20058;-61
2022/10/07 06:49:50;;;;;;;2.85;0.70;;;20.10;64.20;;;;;;4994670;28;20038;-60
2022/10/07 06:52:16;;;;;;;8.38;0.90;;;20.10;64.20;;;;;;4993237;28;20398;-62
2022/10/07 06:54:41;;;;;;;3.03;0.88;;;20.10;64.20;;;;;;4993683;28;20046;-62
2022/10/07 06:57:07;;;;;;;4.93;1.02;;;20.10;64.20;;;;;;4994033;28;20512;-66
2022/10/07 06:59:33;;;;;;;3.97;1.10;;;20.10;64.10;;;;;;4994136;28;20046;-61
2022/10/07 07:01:58;;;;;;;4.38;0.90;;;20.10;64.10;;;;;;4993489;28;20146;-62
2022/10/07 07:04:24;;;;;;;3.45;0.80;;;20.10;64.10;;;;;;4993844;28;20117;-62
2022/10/07 07:06:50;;;;;;;5.13;1.20;;;20.10;64.10;;;;;;4994370;28;20042;-61
2022/10/07 07:09:15;;;;;;;5.20;1.30;;;20.20;64.20;;;;;;4993046;28;20042;-61
2022/10/07 07:11:43;;;;;;;6.65;1.38;;;20.20;64.40;;;;;;4976563;28;20042;-61
2022/10/07 07:14:10;;;;;;;3.67;1.00;;;20.20;64.30;;;;;;4976195;28;20046;-61
2022/10/07 07:16:36;;;;;;;5.40;1.77;;;20.20;64.40;;;;;;4993449;28;20042;-63
2022/10/07 07:19:04;;;;;;;4.40;0.77;;;20.20;64.40;;;;;;4994159;28;20068;-61
2022/10/07 07:21:30;;;;;;;8.52;1.27;;;20.30;64.40;;;;;;4991660;28;20134;-61
2022/10/07 07:23:56;;;;;;;7.82;1.15;;;20.30;64.60;;;;;;4993486;28;20113;-61
2022/10/07 07:26:22;;;;;;;7.28;1.30;;;20.30;64.70;;;;;;4993441;28;20454;-62
2022/10/07 07:28:57;;;;;;;5.75;1.20;;;20.30;64.70;;;;;;4992987;28;20034;-62
2022/10/07 07:31:22;;;;;;;3.38;0.70;;;20.30;64.80;;;;;;4993465;28;20080;-63
2022/10/07 07:33:51;;;;;;;5.20;0.90;;;20.40;64.90;;;;;;4993725;28;20042;-62
2022/10/07 07:36:17;;;;;;;2.45;0.93;;;20.30;64.90;;;;;;4992482;28;20046;-62
2022/10/07 07:38:50;;;;;;;4.70;1.10;;;20.30;64.90;;;;;;4993479;28;20046;-62
2022/10/07 07:41:15;;;;;;;5.60;1.10;;;20.40;65.00;;;;;;4993267;28;20046;-62
2022/10/07 07:43:41;;;;;;;4.75;1.05;;;20.40;65.00;;;;;;4992976;28;20050;-61
2022/10/07 07:46:06;;;;;;;5.38;1.08;;;20.50;65.10;;;;;;4993451;28;20121;-62
2022/10/07 07:48:32;;;;;;;5.18;1.20;;;20.40;65.10;;;;;;4992578;28;20137;-63
2022/10/07 07:50:57;;;;;;;5.20;0.80;;;20.50;65.20;;;;;;4992539;28;20177;-62
2022/10/07 07:53:23;;;;;;;4.90;1.23;;;20.50;65.20;;;;;;4992719;28;20089;-62
2022/10/07 07:55:53;;;;;;;4.43;1.08;;;20.50;65.20;;;;;;4993028;28;20132;-62
2022/10/07 07:58:20;;;;;;;4.88;1.00;;;20.50;65.20;;;;;;4992532;28;20047;-62
2022/10/07 08:00:45;;;;;;;5.00;0.90;;;20.50;65.20;;;;;;4993329;28;20101;-62
2022/10/07 08:03:11;;;;;;;6.53;1.10;;;20.50;65.20;;;;;;4975478;28;20038;-63
2022/10/07 08:05:36;;;;;;;4.68;0.75;;;20.60;65.20;;;;;;4992576;28;20052;-63
2022/10/07 08:08:02;;;;;;;3.25;0.80;;;20.60;65.20;;;;;;4993288;28;20042;-61
2022/10/07 08:10:28;;;;;;;6.40;1.25;;;20.50;65.10;;;;;;4993033;28;20046;-61
2022/10/07 08:12:54;;;;;;;4.15;1.00;;;20.60;65.10;;;;;;4992559;28;20070;-61
2022/10/07 08:15:20;;;;;;;3.70;0.90;;;20.60;65.10;;;;;;4992635;28;20094;-61
2022/10/07 08:17:46;;;;;;;3.92;1.10;;;20.60;65.10;;;;;;4992109;28;20093;-61
2022/10/07 08:20:12;;;;;;;5.60;1.55;;;20.70;65.10;;;;;;4992689;28;20463;-61
2022/10/07 08:22:37;;;;;;;3.85;0.93;;;20.70;65.10;;;;;;4975398;28;20486;-62
2022/10/07 08:25:04;;;;;;;3.55;0.75;;;20.60;65.00;;;;;;4992172;28;20065;-62
2022/10/07 08:27:30;;;;;;;4.35;1.05;;;20.70;65.10;;;;;;4992542;28;20053;-62
2022/10/07 08:29:55;;;;;;;4.57;1.13;;;20.70;65.10;;;;;;4993172;28;20042;-62
2022/10/07 08:32:21;;;;;;;4.63;1.10;;;20.60;65.00;;;;;;4991964;28;20042;-62
2022/10/07 08:34:46;;;;;;;2.85;1.00;;;20.60;65.00;;;;;;4993126;28;20045;-63
2022/10/07 08:37:12;;;;;;;4.10;0.95;;;20.60;65.00;;;;;;4992582;28;20046;-62
2022/10/07 08:39:37;;;;;;;3.13;0.90;;;20.70;65.70;;;;;;4991076;28;20069;-62
2022/10/07 08:42:11;;;;;;;4.57;1.27;;;20.70;65.10;;;;;;4992110;28;20077;-62
2022/10/07 08:44:47;;;;;;;3.20;0.80;;;20.60;65.10;;;;;;4975765;28;20089;-62
2022/10/07 08:47:25;;;;;;;10.95;1.33;;;20.70;65.10;;;;;;4973723;28;20064;-62
2022/10/07 08:50:03;;;;;;;4.43;1.15;;;20.70;65.20;;;;;;4993063;28;20097;-63
2022/10/07 08:52:49;;;;;;;5.28;1.00;;;20.60;65.20;;;;;;4992798;28;20054;-64
2022/10/07 08:55:39;;;;;;;4.53;0.80;;;20.70;65.10;;;;;;4990812;28;20057;-62
2022/10/07 08:58:22;;;;;;;5.00;0.90;;;20.60;65.00;;;;;;4978112;28;20057;-62
2022/10/07 09:01:02;;;;;;;3.10;1.00;;;20.60;65.00;;;;;;4975294;28;20050;-60
2022/10/07 09:03:43;;;;;;;6.32;1.10;;;20.60;64.90;;;;;;4958315;28;20057;-62
2022/10/07 09:06:22;;;;;;;13.40;1.58;;;20.60;65.00;;;;;;4994297;28;20085;-62
2022/10/07 09:08:51;;;;;;;9.93;1.45;;;20.60;65.00;;;;;;4978986;28;20047;-62
2022/10/07 09:11:19;;;;;;;11.70;1.58;;;20.60;65.10;;;;;;4977474;28;20082;-62
2022/10/07 09:13:49;;;;;;;13.82;1.25;;;20.70;65.10;;;;;;4997381;28;20043;-62
2022/10/07 09:16:23;;;;;;;11.07;1.60;;;20.70;65.10;;;;;;4977623;28;20047;-62
2022/10/07 09:18:52;;;;;;;9.30;1.35;;;20.70;65.10;;;;;;4978764;28;20398;-62
2022/10/07 09:21:42;;;;;;;9.48;1.38;;;20.60;65.10;;;;;;4978158;28;20093;-62
2022/10/07 09:24:24;;;;;;;10.75;1.83;;;20.60;64.70;;;;;;4978452;28;20397;-62
2022/10/07 09:27:00;;;;;;;11.07;1.40;;;20.60;64.50;;;;;;4978540;28;20089;-62
2022/10/07 09:29:28;;;;;;;8.20;1.50;;;20.60;64.30;;;;;;4995230;28;20049;-63
2022/10/07 09:31:54;;;;;;;6.07;1.58;;;20.60;64.10;;;;;;4978685;28;20073;-62
2022/10/07 09:34:27;;;;;;;6.50;1.50;;;20.60;63.80;;;;;;4978196;28;20466;-62
2022/10/07 09:37:11;;;;;;;8.35;1.50;;;20.60;63.50;;;;;;4977623;28;20054;-62
2022/10/07 09:39:37;;;;;;;10.82;1.98;;;20.60;63.20;;;;;;4995821;28;20096;-62
2022/10/07 09:42:04;;;;;;;9.18;1.90;;;20.60;63.10;;;;;;4995858;28;20105;-62
2022/10/07 09:44:29;;;;;;;12.77;2.05;;;20.60;62.90;;;;;;4994648;28;20050;-62
2022/10/07 09:46:56;;;;;;;8.40;1.77;;;20.60;62.60;;;;;;4995783;28;20425;-63
2022/10/07 09:49:29;;;;;;;8.50;1.80;;;20.60;62.50;;;;;;4994439;28;20050;-61
2022/10/07 09:52:11;;;;;;;10.00;1.70;;;20.60;62.20;;;;;;4974685;28;20045;-62
2022/10/07 09:54:37;;;;;;;8.02;1.50;;;20.60;62.20;;;;;;4977728;28;20405;-62
2022/10/07 09:57:03;;;;;;;9.02;1.70;;;20.60;62.20;;;;;;4991501;28;20486;-61
2022/10/07 09:59:33;;;;;;;11.07;1.58;;;20.60;62.30;;;;;;4994532;28;20125;-63
2022/10/07 10:02:14;;;;;;;12.02;2.00;;;20.60;62.40;;;;;;4995366;28;20054;-63
2022/10/07 10:04:52;;;;;;;6.70;1.88;;;20.60;62.40;;;;;;4994432;28;20050;-62
2022/10/07 10:07:23;;;;;;;9.55;1.90;;;20.60;62.40;;;;;;4978552;28;20042;-62
2022/10/07 10:10:02;;;;;;;10.50;1.60;;;20.70;62.50;;;;;;4995405;28;20137;-62
2022/10/07 10:12:36;;;;;;;5.95;1.25;;;20.60;62.40;;;;;;4977445;28;20101;-62
2022/10/07 10:15:03;;;;;;;6.70;1.02;;;20.70;62.50;;;;;;4962201;28;20497;-62
2022/10/07 10:17:33;;;;;;;8.70;1.60;;;20.60;62.40;;;;;;4975353;28;20077;-62
2022/10/07 10:20:26;;;;;;;10.63;1.33;;;20.60;62.40;;;;;;4995347;28;20058;-62
2022/10/07 10:22:52;;;;;;;8.82;1.58;;;20.70;62.30;;;;;;4994752;28;20047;-62
2022/10/07 10:28:48;;;;;;;8.27;1.75;;;20.70;62.40;;;;;;4980686;28;20047;-62
2022/10/07 10:31:28;;;;;;;6.70;1.67;;;20.60;62.30;;;;;;4979992;28;20050;-62
2022/10/07 10:34:06;;;;;;;5.45;1.20;;;20.60;62.30;;;;;;4978879;28;20050;-62
2022/10/07 10:36:32;;;;;;;7.03;1.52;;;20.60;62.20;;;;;;4978776;28;20474;-62
2022/10/07 10:39:25;;;;;;;6.30;1.63;;;20.60;62.20;;;;;;4976834;28;20042;-61
2022/10/07 10:41:53;;;;;;;5.30;1.30;;;20.60;62.10;;;;;;4960399;28;20487;-62
2022/10/07 10:44:42;;;;;;;5.72;0.98;;;20.60;62.20;;;;;;4957723;28;20498;-62
2022/10/07 10:47:11;;;;;;;5.75;1.10;;;20.70;62.10;;;;;;4958958;28;20039;-63
2022/10/07 10:50:01;;;;;;;7.88;1.30;;;20.60;62.10;;;;;;4975185;28;20050;-63
2022/10/07 10:53:15;;;;;;;5.90;1.00;;;20.60;62.20;;;;;;4959688;28;20061;-63
2022/10/07 10:56:01;;;;;;;6.70;1.45;;;20.70;62.20;;;;;;4912088;29;20131;-63
2022/10/07 10:58:42;;;;;;;8.13;1.33;;;20.60;62.20;;;;;;4987672;28;20606;-63
2022/10/07 11:01:26;;;;;;;6.10;1.13;;;20.60;62.20;;;;;;4958207;28;20546;-63
2022/10/07 11:03:58;;;;;;;7.88;1.52;;;20.60;62.00;;;;;;4975114;28;20051;-63
2022/10/07 11:06:25;;;;;;;8.20;1.35;;;20.70;62.10;;;;;;4983561;28;20137;-63
2022/10/07 11:08:51;;;;;;;5.57;1.55;;;20.70;61.90;;;;;;4976436;28;20046;-63
2022/10/07 11:11:17;;;;;;;6.65;1.10;;;20.60;61.90;;;;;;4976390;28;20038;-64
2022/10/07 11:13:56;;;;;;;7.93;1.38;;;20.60;61.90;;;;;;4975961;28;20038;-63
2022/10/07 11:16:43;;;;;;;5.93;1.20;;;20.60;61.90;;;;;;4976271;28;20047;-63
2022/10/07 11:19:21;;;;;;;9.82;1.65;;;20.60;61.80;;;;;;4976322;28;20048;-64
2022/10/07 11:21:55;;;;;;;8.88;1.35;;;20.60;61.80;;;;;;4975443;28;20454;-63
2022/10/07 11:24:29;;;;;;;12.05;1.63;;;20.60;61.60;;;;;;4976547;28;20101;-63
2022/10/07 11:27:19;;;;;;;9.75;2.15;;;20.60;61.60;;;;;;4976516;28;20446;-65
2022/10/07 11:29:53;;;;;;;6.63;1.20;;;20.70;61.70;;;;;;4975574;28;20046;-67
2022/10/07 11:32:38;;;;;;;11.25;1.52;;;20.70;61.60;;;;;;4976777;28;20485;-66
2022/10/07 11:35:24;;;;;;;6.68;1.30;;;20.70;61.50;;;;;;4957596;28;20061;-64
2022/10/07 11:38:04;;;;;;;11.02;1.50;;;20.60;61.50;;;;;;4976458;28;20069;-66
2022/10/07 11:40:31;;;;;;;9.35;1.45;;;20.70;61.50;;;;;;4993292;28;20405;-65
2022/10/07 11:43:01;;;;;;;8.30;1.48;;;20.70;61.40;;;;;;4975187;28;20053;-64
2022/10/07 11:45:30;;;;;;;7.40;1.77;;;20.60;61.40;;;;;;4976374;28;20046;-66
2022/10/07 11:47:58;;;;;;;8.07;1.20;;;20.60;61.40;;;;;;4976517;28;20058;-66
2022/10/07 11:50:30;;;;;;;6.90;1.35;;;20.60;61.30;;;;;;4975242;28;20054;-66
2022/10/07 11:53:00;;;;;;;5.50;1.10;;;20.70;61.30;;;;;;4976056;28;20131;-68
2022/10/07 11:55:55;;;;;;;9.90;1.25;;;20.70;61.10;;;;;;4993773;28;20076;-63
2022/10/07 11:58:38;;;;;;;4.20;0.90;;;20.80;61.00;;;;;;4979833;28;20050;-66
2022/10/07 12:01:27;;;;;;;7.88;1.13;;;20.90;61.00;;;;;;4993431;28;20101;-65
2022/10/07 12:04:11;;;;;;;7.43;1.13;;;21.00;61.10;;;;;;4992553;28;20049;-65
2022/10/07 12:06:37;;;;;;;11.60;1.40;;;21.00;61.00;;;;;;4993246;28;20046;-65
2022/10/07 12:09:40;;;;;;;6.05;1.25;;;21.00;60.90;;;;;;4975669;28;20053;-64
2022/10/07 12:12:11;;;;;;;7.35;1.20;;;21.00;60.90;;;;;;4989526;28;20050;-63
2022/10/07 12:14:41;;;;;;;7.30;0.98;;;21.00;61.00;;;;;;4973074;28;20156;-62
2022/10/07 12:17:27;;;;;;;8.50;1.20;;;21.00;61.20;;;;;;4991550;28;20406;-63
2022/10/07 12:20:33;;;;;;;7.72;1.35;;;20.90;61.10;;;;;;4992607;28;20070;-64
2022/10/07 12:23:19;;;;;;;4.32;1.00;;;20.90;61.20;;;;;;4990521;28;20046;-65
2022/10/07 12:25:54;;;;;;;5.85;1.00;;;20.90;61.20;;;;;;4976062;28;20059;-64
2022/10/07 12:28:23;;;;;;;8.10;1.55;;;20.90;61.40;;;;;;4992596;28;20027;-64
2022/10/07 12:30:50;;;;;;;5.90;1.10;;;20.90;62.40;;;;;;4992787;28;20042;-64
2022/10/07 12:33:53;;;;;;;10.93;1.57;;;20.90;62.00;;;;;;4991985;28;20085;-64
2022/10/07 12:36:22;;;;;;;7.65;1.00;;;20.90;62.30;;;;;;4974948;28;20057;-64
2022/10/07 12:38:59;;;;;;;9.02;1.60;;;20.90;62.20;;;;;;4992432;28;20050;-64
2022/10/07 12:41:28;;;;;;;8.10;1.60;;;20.90;62.50;;;;;;4995649;28;20042;-63
2022/10/07 12:44:22;;;;;;;7.40;1.30;;;20.90;62.60;;;;;;4979682;28;20117;-64
2022/10/07 12:47:09;;;;;;;7.15;1.40;;;20.90;62.70;;;;;;4996222;28;20046;-63
2022/10/07 12:49:35;;;;;;;6.03;1.00;;;20.90;62.60;;;;;;4996557;28;20046;-63
2022/10/07 12:52:42;;;;;;;8.65;1.20;;;20.90;62.70;;;;;;4996066;28;20089;-64
2022/10/07 12:55:09;;;;;;;7.53;1.07;;;20.90;62.70;;;;;;4992537;28;20050;-64
2022/10/07 12:57:37;;;;;;;7.70;1.30;;;20.80;62.60;;;;;;4996071;28;20313;-64
2022/10/07 13:00:19;;;;;;;6.88;1.10;;;20.80;62.70;;;;;;4978126;28;20494;-64
2022/10/07 13:03:21;;;;;;;6.18;0.93;;;20.80;62.60;;;;;;5002524;28;20484;-64
2022/10/07 13:06:11;;;;;;;6.18;1.10;;;20.90;62.70;;;;;;4996211;28;20043;-63
2022/10/07 13:08:40;;;;;;;9.70;1.50;;;20.80;62.70;;;;;;4996513;28;20054;-63
2022/10/07 13:11:47;;;;;;;6.72;1.58;;;20.80;62.70;;;;;;4995819;28;20505;-63